Time;durP1;ratioP1;P1;durP2;ratioP2;P2;SDS_P1;SDS_P2;PMS_P1;PMS_P2;Temp;Humidity;BMP_temperature;BMP_pressure;BME280_temperature;BME280_humidity;BME280_pressure;Samples;Min_cycle;Max_cycle;Signal;HPM_P1;HPM_P2
2023/03/12 00:01:10;;;;;;;13.05;2.90;;;16.00;43.90;;;;;;4942961;29;20324;-82
2023/03/12 00:03:39;;;;;;;4.18;3.08;;;16.00;43.90;;;;;;4942889;29;20755;-82
2023/03/12 00:06:06;;;;;;;4.78;3.13;;;16.00;43.80;;;;;;4943192;29;20611;-82
2023/03/12 00:08:33;;;;;;;4.45;2.88;;;16.00;43.90;;;;;;4927097;29;20205;-82
2023/03/12 00:11:06;;;;;;;4.07;3.10;;;15.90;43.60;;;;;;4944742;29;20563;-82
2023/03/12 00:13:33;;;;;;;3.17;2.88;;;16.00;43.90;;;;;;4941952;29;20230;-82
2023/03/12 00:16:05;;;;;;;4.63;2.90;;;15.90;43.90;;;;;;4942097;29;20263;-82
2023/03/12 00:18:32;;;;;;;16.83;7.05;;;15.90;44.10;;;;;;4927358;29;20199;-82
2023/03/12 00:20:59;;;;;;;9.05;4.35;;;15.90;44.00;;;;;;4943044;29;20257;-85
2023/03/12 00:23:27;;;;;;;11.05;4.38;;;15.90;44.60;;;;;;4943266;29;20213;-86
2023/03/12 00:25:54;;;;;;;8.88;4.13;;;15.90;44.40;;;;;;4942316;29;20227;-86
2023/03/12 00:28:22;;;;;;;5.32;3.65;;;15.80;43.90;;;;;;4942705;29;20548;-86
2023/03/12 00:30:51;;;;;;;7.60;3.72;;;15.80;43.90;;;;;;4942536;29;20242;-87
2023/03/12 00:33:18;;;;;;;7.22;4.05;;;15.70;44.00;;;;;;4927208;29;20203;-84
2023/03/12 00:35:45;;;;;;;7.15;3.90;;;15.70;43.90;;;;;;4942883;29;20705;-84
2023/03/12 00:38:12;;;;;;;6.50;3.38;;;15.70;44.00;;;;;;4942715;29;20203;-84
2023/03/12 00:40:39;;;;;;;5.10;3.95;;;15.60;43.90;;;;;;4942227;29;20202;-84
2023/03/12 00:43:06;;;;;;;6.57;3.58;;;15.60;43.80;;;;;;4941945;29;20234;-84
2023/03/12 00:45:35;;;;;;;6.57;3.78;;;15.60;43.90;;;;;;4941335;29;20250;-84
2023/03/12 00:48:02;;;;;;;4.82;3.38;;;15.60;43.90;;;;;;4941908;29;20195;-85
2023/03/12 00:50:29;;;;;;;7.57;3.63;;;15.50;44.10;;;;;;4941717;29;20575;-85
2023/03/12 00:52:56;;;;;;;5.88;4.07;;;15.50;43.90;;;;;;4942161;29;20207;-85
2023/03/12 00:55:23;;;;;;;5.28;3.60;;;15.50;43.70;;;;;;4941085;28;20198;-85
2023/03/12 00:57:50;;;;;;;5.22;3.60;;;15.50;44.00;;;;;;4941426;29;20218;-85
2023/03/12 01:00:18;;;;;;;6.57;3.88;;;15.40;43.90;;;;;;4941598;29;20203;-85
2023/03/12 01:02:46;;;;;;;4.47;3.45;;;15.40;43.90;;;;;;4924938;29;20278;-85
2023/03/12 01:05:14;;;;;;;5.65;3.88;;;15.40;43.90;;;;;;4941063;28;20199;-85
2023/03/12 01:07:41;;;;;;;5.80;3.80;;;15.30;43.80;;;;;;4909772;29;20210;-85
2023/03/12 01:10:10;;;;;;;7.38;3.90;;;15.30;43.80;;;;;;4940644;29;20207;-85
2023/03/12 01:12:37;;;;;;;5.03;3.50;;;15.30;43.80;;;;;;4941119;29;20742;-85
2023/03/12 01:15:05;;;;;;;5.07;3.28;;;15.30;44.00;;;;;;4941154;29;20199;-85
2023/03/12 01:17:33;;;;;;;6.72;3.70;;;15.30;44.00;;;;;;4940566;29;20215;-85
2023/03/12 01:20:02;;;;;;;5.88;3.70;;;15.30;44.50;;;;;;4940660;29;20298;-85
2023/03/12 01:22:29;;;;;;;4.82;3.75;;;15.30;44.00;;;;;;4941030;29;20198;-85
2023/03/12 01:24:56;;;;;;;5.32;3.20;;;15.30;44.00;;;;;;4940564;29;20306;-85
2023/03/12 01:27:23;;;;;;;4.13;3.25;;;15.20;44.00;;;;;;4940614;29;20222;-85
2023/03/12 01:29:50;;;;;;;5.68;3.63;;;15.30;44.00;;;;;;4940441;29;20206;-85
2023/03/12 01:32:17;;;;;;;5.15;3.42;;;15.20;43.90;;;;;;4940937;29;20250;-85
2023/03/12 01:34:45;;;;;;;4.70;3.17;;;15.20;44.00;;;;;;4941183;29;20203;-85
2023/03/12 01:37:13;;;;;;;4.57;3.20;;;15.20;44.00;;;;;;4940687;29;20218;-85
2023/03/12 01:39:41;;;;;;;6.45;3.70;;;15.20;43.90;;;;;;4941238;29;20203;-85
2023/03/12 01:42:08;;;;;;;5.05;3.55;;;15.20;44.60;;;;;;4924795;29;20198;-85
2023/03/12 01:44:50;;;;;;;5.03;3.30;;;15.10;44.00;;;;;;4940410;29;20557;-85
2023/03/12 01:47:17;;;;;;;5.57;3.10;;;15.10;43.80;;;;;;4939695;29;20306;-85
2023/03/12 01:49:44;;;;;;;4.95;3.60;;;15.20;44.00;;;;;;4939686;29;20205;-85
2023/03/12 01:52:14;;;;;;;5.72;3.50;;;15.10;44.00;;;;;;4940184;29;20199;-85
2023/03/12 01:54:55;;;;;;;4.10;3.70;;;15.10;43.90;;;;;;4939948;29;20187;-85
2023/03/12 01:57:24;;;;;;;6.30;4.13;;;15.10;43.90;;;;;;4939345;29;20222;-85
2023/03/12 01:59:53;;;;;;;5.32;3.60;;;15.10;44.60;;;;;;4940231;29;20198;-85
2023/03/12 02:02:25;;;;;;;5.28;3.20;;;15.10;43.90;;;;;;4939893;29;20293;-85
2023/03/12 02:04:54;;;;;;;6.03;3.92;;;15.10;43.90;;;;;;4940283;29;20609;-85
2023/03/12 02:07:22;;;;;;;4.55;3.42;;;15.10;43.90;;;;;;4939987;29;20704;-85
2023/03/12 02:09:50;;;;;;;5.72;3.85;;;15.10;44.00;;;;;;4940828;29;20652;-86
2023/03/12 02:12:17;;;;;;;5.07;3.50;;;15.10;43.80;;;;;;4941000;29;20298;-85
2023/03/12 02:14:44;;;;;;;4.45;3.38;;;15.10;44.00;;;;;;4924327;29;20199;-85
2023/03/12 02:17:11;;;;;;;3.95;3.40;;;15.00;43.80;;;;;;4923916;29;20230;-86
2023/03/12 02:19:43;;;;;;;5.20;3.80;;;15.10;43.80;;;;;;4939535;29;20206;-86
2023/03/12 02:22:11;;;;;;;6.55;3.90;;;15.10;43.90;;;;;;4940382;29;20202;-85
2023/03/12 02:24:43;;;;;;;4.75;3.50;;;15.00;43.80;;;;;;4939597;29;20757;-86
2023/03/12 02:27:11;;;;;;;5.32;3.88;;;15.00;43.80;;;;;;4939295;29;20612;-85
2023/03/12 02:29:39;;;;;;;5.28;3.70;;;15.10;43.90;;;;;;4939796;29;20198;-85
2023/03/12 02:32:08;;;;;;;4.93;3.85;;;15.00;43.80;;;;;;4940374;29;20633;-85
2023/03/12 02:34:35;;;;;;;4.75;3.72;;;15.00;43.80;;;;;;4939873;29;20704;-85
2023/03/12 02:37:02;;;;;;;4.50;3.65;;;15.00;43.80;;;;;;4924372;29;20226;-85
2023/03/12 02:39:29;;;;;;;3.50;3.20;;;15.00;43.90;;;;;;4938874;29;20194;-85
2023/03/12 02:41:57;;;;;;;4.72;3.33;;;15.00;43.80;;;;;;4938988;29;20203;-85
2023/03/12 02:44:26;;;;;;;4.45;3.50;;;15.00;43.80;;;;;;4939125;29;20195;-85
2023/03/12 02:46:55;;;;;;;4.43;3.80;;;15.00;43.80;;;;;;4939140;29;20247;-85
2023/03/12 02:49:25;;;;;;;4.00;3.60;;;15.00;43.80;;;;;;4938904;29;20206;-85
2023/03/12 02:51:52;;;;;;;4.22;3.45;;;15.00;43.70;;;;;;4939166;29;20198;-85
2023/03/12 02:54:19;;;;;;;5.68;4.15;;;15.00;43.70;;;;;;4939230;29;20206;-85
2023/03/12 02:56:46;;;;;;;5.97;3.90;;;14.90;43.40;;;;;;4939700;29;20253;-85
2023/03/12 02:59:14;;;;;;;3.90;3.50;;;15.00;43.30;;;;;;4924583;29;20317;-85
2023/03/12 03:01:44;;;;;;;4.15;3.63;;;14.90;43.50;;;;;;4939149;29;20202;-85
2023/03/12 03:04:11;;;;;;;6.43;4.30;;;14.90;43.40;;;;;;4938971;29;20198;-85
2023/03/12 03:06:39;;;;;;;4.50;3.85;;;15.00;43.60;;;;;;4938564;29;20705;-85
2023/03/12 03:09:06;;;;;;;4.28;3.83;;;15.00;43.60;;;;;;4941193;29;20631;-85
2023/03/12 03:11:33;;;;;;;5.00;3.70;;;14.90;43.60;;;;;;4942513;29;20267;-85
2023/03/12 03:14:03;;;;;;;5.28;3.80;;;14.90;43.60;;;;;;4942375;29;20290;-85
2023/03/12 03:16:30;;;;;;;5.28;3.80;;;14.90;43.50;;;;;;4942363;29;20305;-85
2023/03/12 03:19:00;;;;;;;4.50;3.80;;;14.90;43.50;;;;;;4926784;29;20246;-85
2023/03/12 03:21:26;;;;;;;4.40;3.90;;;14.90;43.30;;;;;;4942321;29;20199;-85
2023/03/12 03:23:54;;;;;;;5.00;3.90;;;14.90;43.40;;;;;;4942290;29;20205;-85
2023/03/12 03:26:22;;;;;;;4.63;3.67;;;14.90;43.40;;;;;;4943550;29;20257;-85
2023/03/12 03:28:56;;;;;;;5.72;4.20;;;14.90;43.40;;;;;;4942318;29;20190;-85
2023/03/12 03:31:25;;;;;;;5.28;3.90;;;14.80;43.30;;;;;;4947289;29;20190;-85
2023/03/12 03:33:52;;;;;;;6.03;4.22;;;14.90;43.40;;;;;;4943420;29;20242;-85
2023/03/12 03:36:22;;;;;;;4.95;3.88;;;14.80;43.40;;;;;;4943860;29;20579;-85
2023/03/12 03:38:58;;;;;;;6.32;3.92;;;14.80;43.20;;;;;;4945122;29;20211;-85
2023/03/12 03:41:25;;;;;;;4.63;3.83;;;14.80;43.30;;;;;;4929085;29;20198;-85
2023/03/12 03:43:57;;;;;;;5.10;4.10;;;14.90;43.30;;;;;;4929100;29;20206;-85
2023/03/12 03:46:24;;;;;;;5.00;3.83;;;14.80;43.20;;;;;;4945427;29;20219;-85
2023/03/12 03:48:57;;;;;;;5.07;4.07;;;14.80;43.30;;;;;;4945402;29;20187;-85
2023/03/12 03:51:26;;;;;;;5.57;4.05;;;14.80;43.20;;;;;;4929353;29;20565;-85
2023/03/12 03:53:59;;;;;;;4.25;3.80;;;14.80;43.10;;;;;;4944519;29;20657;-85
2023/03/12 03:56:27;;;;;;;4.95;3.88;;;14.80;43.10;;;;;;4941789;29;20701;-85
2023/03/12 03:58:54;;;;;;;5.03;3.72;;;14.80;43.20;;;;;;4942316;29;20239;-85
2023/03/12 04:01:22;;;;;;;5.25;3.80;;;14.80;43.00;;;;;;4941890;29;20201;-85
2023/03/12 04:03:50;;;;;;;4.88;3.78;;;14.80;43.10;;;;;;4941783;29;20205;-85
2023/03/12 04:06:17;;;;;;;4.10;3.70;;;14.80;43.40;;;;;;4941659;29;20693;-85
2023/03/12 04:08:46;;;;;;;5.25;4.00;;;14.80;43.70;;;;;;4927019;29;20202;-85
2023/03/12 04:11:16;;;;;;;4.03;3.53;;;14.80;43.80;;;;;;4945026;29;20202;-85
2023/03/12 04:13:43;;;;;;;4.18;3.78;;;14.80;43.60;;;;;;4957933;29;20187;-85
2023/03/12 04:16:11;;;;;;;3.80;3.33;;;14.80;43.70;;;;;;4964560;29;20219;-85
2023/03/12 04:18:39;;;;;;;5.07;3.67;;;14.80;43.90;;;;;;4965246;29;20286;-85
2023/03/12 04:21:08;;;;;;;5.30;4.00;;;14.80;44.00;;;;;;4952908;29;20242;-85
2023/03/12 04:23:35;;;;;;;5.63;4.22;;;14.70;43.80;;;;;;4946713;29;20199;-85
2023/03/12 04:26:04;;;;;;;4.80;4.00;;;14.70;43.70;;;;;;4947181;29;20230;-85
2023/03/12 04:28:32;;;;;;;4.82;4.18;;;14.70;43.90;;;;;;4947706;29;20227;-85
2023/03/12 04:31:00;;;;;;;4.68;3.83;;;14.70;43.80;;;;;;4946528;29;20203;-85
2023/03/12 04:33:33;;;;;;;4.55;3.83;;;14.70;44.00;;;;;;4946781;29;20191;-85
2023/03/12 04:36:00;;;;;;;5.70;3.83;;;14.70;44.00;;;;;;4946334;29;20254;-85
2023/03/12 04:38:28;;;;;;;4.82;4.25;;;14.80;44.60;;;;;;4945588;29;20214;-85
2023/03/12 04:40:59;;;;;;;4.82;3.97;;;14.80;43.80;;;;;;4945753;29;20219;-85
2023/03/12 04:43:28;;;;;;;4.50;3.53;;;14.80;43.60;;;;;;4945548;29;20290;-86
2023/03/12 04:45:55;;;;;;;4.25;3.58;;;14.80;43.60;;;;;;4943058;29;20215;-85
2023/03/12 04:48:22;;;;;;;4.63;3.85;;;14.90;43.70;;;;;;4941338;29;20205;-85
2023/03/12 04:50:51;;;;;;;4.00;3.60;;;14.90;43.50;;;;;;4941044;29;20202;-85
2023/03/12 04:53:18;;;;;;;4.20;3.80;;;15.00;43.40;;;;;;4942843;29;20632;-85
2023/03/12 04:55:47;;;;;;;5.25;3.58;;;15.00;43.30;;;;;;4944456;29;20245;-85
2023/03/12 04:58:14;;;;;;;4.40;4.00;;;15.00;43.00;;;;;;4944368;29;20246;-85
2023/03/12 05:00:43;;;;;;;4.50;3.72;;;15.10;43.00;;;;;;4944850;29;20673;-85
2023/03/12 05:03:10;;;;;;;4.95;3.67;;;15.10;43.00;;;;;;4945294;29;20202;-85
2023/03/12 05:05:37;;;;;;;4.43;3.53;;;15.10;43.20;;;;;;4943749;29;20222;-85
2023/03/12 05:08:05;;;;;;;4.45;3.78;;;15.10;43.20;;;;;;4944143;29;20199;-85
2023/03/12 05:10:34;;;;;;;4.50;3.72;;;15.10;43.30;;;;;;4929290;29;20203;-85
2023/03/12 05:13:01;;;;;;;6.53;3.53;;;15.10;43.10;;;;;;4946532;29;20616;-85
2023/03/12 05:15:28;;;;;;;4.03;3.47;;;15.20;43.40;;;;;;4945175;28;20278;-85
2023/03/12 05:17:57;;;;;;;4.60;3.60;;;15.20;43.20;;;;;;4928651;29;20261;-85
2023/03/12 05:20:25;;;;;;;3.50;3.20;;;15.20;43.20;;;;;;4940635;29;20202;-85
2023/03/12 05:22:52;;;;;;;3.95;3.30;;;15.20;43.70;;;;;;4941408;29;20250;-85
2023/03/12 05:25:19;;;;;;;3.97;3.60;;;15.20;42.70;;;;;;4940183;28;20218;-85
2023/03/12 05:27:48;;;;;;;4.22;3.58;;;15.20;42.80;;;;;;4941137;29;20277;-85
2023/03/12 05:30:15;;;;;;;4.45;3.58;;;15.20;42.80;;;;;;4940769;29;20214;-85
2023/03/12 05:32:43;;;;;;;4.82;3.88;;;15.20;42.80;;;;;;4942321;29;20206;-85
2023/03/12 05:35:11;;;;;;;4.07;3.60;;;15.30;42.70;;;;;;4945397;28;20198;-85
2023/03/12 05:37:41;;;;;;;4.60;3.65;;;15.30;42.50;;;;;;4941486;29;20209;-85
2023/03/12 05:40:10;;;;;;;3.78;3.33;;;15.30;42.40;;;;;;4947513;29;20233;-85
2023/03/12 05:42:38;;;;;;;4.05;3.60;;;15.30;42.70;;;;;;4952334;29;20285;-85
2023/03/12 05:45:07;;;;;;;3.50;3.20;;;15.30;42.60;;;;;;4947763;28;20221;-85
2023/03/12 05:47:36;;;;;;;4.07;3.30;;;15.30;43.10;;;;;;4955677;29;20195;-85
2023/03/12 05:50:03;;;;;;;4.07;3.58;;;15.30;42.90;;;;;;4947370;29;20183;-85
2023/03/12 05:52:32;;;;;;;3.38;2.78;;;15.30;42.70;;;;;;4963195;29;20222;-85
2023/03/12 05:54:59;;;;;;;4.95;3.47;;;15.40;42.90;;;;;;4963015;29;20179;-85
2023/03/12 05:57:26;;;;;;;5.40;3.85;;;15.40;42.50;;;;;;4963126;29;20222;-85
2023/03/12 05:59:53;;;;;;;4.93;3.53;;;15.40;42.30;;;;;;4958118;29;20723;-85
2023/03/12 06:02:21;;;;;;;3.67;3.35;;;15.40;42.30;;;;;;4962495;29;20230;-85
2023/03/12 06:04:48;;;;;;;4.00;3.30;;;15.50;42.50;;;;;;4955798;29;20577;-85
2023/03/12 06:07:16;;;;;;;3.42;3.13;;;15.50;42.70;;;;;;4940392;29;20239;-85
2023/03/12 06:09:44;;;;;;;3.75;3.33;;;15.50;42.50;;;;;;4940439;29;20199;-85
2023/03/12 06:12:13;;;;;;;5.13;3.28;;;15.60;42.80;;;;;;4940091;29;20202;-85
2023/03/12 06:14:40;;;;;;;3.88;3.42;;;15.60;42.60;;;;;;4939816;29;20562;-85
2023/03/12 06:17:08;;;;;;;4.13;3.50;;;15.60;42.30;;;;;;4940223;29;20579;-85
2023/03/12 06:19:35;;;;;;;4.55;3.67;;;15.60;42.70;;;;;;4940144;29;20223;-85
2023/03/12 06:22:03;;;;;;;3.92;3.30;;;15.60;42.70;;;;;;4940248;29;20205;-85
2023/03/12 06:24:30;;;;;;;5.28;3.88;;;15.50;42.60;;;;;;4939883;29;20207;-85
2023/03/12 06:27:02;;;;;;;4.80;3.58;;;15.60;42.30;;;;;;4939785;29;20241;-85
2023/03/12 06:29:30;;;;;;;3.75;3.22;;;15.60;42.30;;;;;;4938898;29;20199;-85
2023/03/12 06:31:56;;;;;;;4.13;3.63;;;15.70;42.60;;;;;;4939131;29;20203;-85
2023/03/12 06:34:23;;;;;;;3.92;3.17;;;15.70;42.40;;;;;;4941320;29;20202;-85
2023/03/12 06:36:50;;;;;;;4.60;3.40;;;15.70;42.50;;;;;;4939838;29;20222;-85
2023/03/12 06:39:17;;;;;;;4.80;3.53;;;15.70;42.40;;;;;;4939561;29;20222;-85
2023/03/12 06:41:44;;;;;;;4.07;3.47;;;15.70;42.30;;;;;;4939679;29;20209;-85
2023/03/12 06:44:13;;;;;;;3.60;3.30;;;15.70;42.40;;;;;;4940073;29;20199;-85
2023/03/12 06:46:42;;;;;;;3.50;2.95;;;15.70;42.40;;;;;;4940079;29;20234;-85
2023/03/12 06:49:09;;;;;;;3.70;3.25;;;15.70;42.40;;;;;;4939815;29;20199;-85
2023/03/12 06:51:37;;;;;;;4.10;3.50;;;15.80;42.60;;;;;;4940154;29;20623;-85
2023/03/12 06:54:04;;;;;;;3.30;3.00;;;15.80;42.60;;;;;;4940431;29;20206;-85
2023/03/12 06:56:31;;;;;;;3.20;2.90;;;15.80;42.50;;;;;;4940867;29;20652;-85
2023/03/12 06:58:58;;;;;;;3.85;3.50;;;15.80;42.60;;;;;;4957569;29;20215;-85
2023/03/12 07:01:27;;;;;;;3.92;3.25;;;15.80;42.60;;;;;;4941103;29;20198;-85
2023/03/12 07:03:54;;;;;;;4.07;3.47;;;15.80;42.50;;;;;;4941868;29;20203;-85
2023/03/12 07:06:22;;;;;;;3.50;3.17;;;15.80;42.50;;;;;;4940963;29;20269;-85
2023/03/12 07:08:49;;;;;;;5.53;3.47;;;15.80;42.50;;;;;;4941130;29;20195;-85
2023/03/12 07:11:16;;;;;;;3.40;3.10;;;15.90;42.50;;;;;;4941793;29;20202;-85
2023/03/12 07:13:43;;;;;;;4.10;3.35;;;15.90;42.50;;;;;;4941631;29;20217;-85
2023/03/12 07:16:10;;;;;;;3.53;3.13;;;15.90;42.40;;;;;;4941607;29;20305;-85
2023/03/12 07:18:39;;;;;;;3.95;3.20;;;16.00;42.60;;;;;;4940419;29;20561;-85
2023/03/12 07:21:06;;;;;;;2.88;2.63;;;16.00;42.60;;;;;;4939487;29;20207;-85
2023/03/12 07:23:33;;;;;;;3.35;2.80;;;16.00;42.60;;;;;;4938941;29;20210;-85
2023/03/12 07:26:00;;;;;;;4.25;2.92;;;16.10;42.70;;;;;;4939052;29;20234;-85
2023/03/12 07:28:46;;;;;;;4.03;3.30;;;16.00;42.60;;;;;;4956285;29;20211;-85
2023/03/12 07:31:13;;;;;;;3.95;3.47;;;16.10;42.50;;;;;;4923239;29;20202;-85
2023/03/12 07:33:42;;;;;;;5.07;3.60;;;16.10;42.50;;;;;;4938748;29;20199;-85
2023/03/12 07:36:09;;;;;;;3.00;2.70;;;16.10;42.50;;;;;;4938656;29;20589;-85
2023/03/12 07:38:36;;;;;;;3.60;3.00;;;16.10;42.50;;;;;;4924159;29;20314;-85
2023/03/12 07:41:04;;;;;;;3.20;2.90;;;16.10;42.50;;;;;;4938675;29;20209;-85
2023/03/12 07:43:31;;;;;;;3.35;3.05;;;16.10;42.70;;;;;;4938843;29;20297;-85
2023/03/12 07:45:59;;;;;;;3.28;2.80;;;16.10;42.60;;;;;;4938551;29;20270;-85
2023/03/12 07:48:26;;;;;;;4.25;2.90;;;16.10;42.60;;;;;;4938469;29;20269;-85
2023/03/12 07:50:55;;;;;;;3.95;3.28;;;16.10;42.70;;;;;;4938667;29;20813;-85
2023/03/12 07:53:22;;;;;;;3.88;3.38;;;16.20;42.70;;;;;;4938824;29;20214;-85
2023/03/12 07:55:49;;;;;;;4.28;3.30;;;16.20;42.80;;;;;;4940296;29;20227;-85
2023/03/12 07:58:16;;;;;;;4.20;3.03;;;16.20;42.70;;;;;;4941730;29;20199;-85
2023/03/12 08:00:43;;;;;;;3.55;3.25;;;16.30;42.80;;;;;;4942017;29;20665;-85
2023/03/12 08:03:10;;;;;;;3.22;2.92;;;16.30;42.70;;;;;;4942007;29;20207;-85
2023/03/12 08:05:37;;;;;;;4.43;3.33;;;16.40;42.60;;;;;;4943142;29;20234;-85
2023/03/12 08:08:07;;;;;;;4.38;3.95;;;16.30;42.30;;;;;;4925892;29;20295;-85
2023/03/12 08:10:34;;;;;;;11.77;9.40;;;16.40;42.30;;;;;;4942492;29;20573;-85
2023/03/12 08:13:01;;;;;;;6.25;5.65;;;16.40;42.20;;;;;;4942541;29;20211;-85
2023/03/12 08:15:29;;;;;;;5.78;5.28;;;16.40;42.20;;;;;;4942516;28;20246;-85
2023/03/12 08:17:56;;;;;;;5.10;3.55;;;16.50;42.30;;;;;;4942946;29;20245;-85
2023/03/12 08:20:23;;;;;;;4.07;3.55;;;16.50;42.10;;;;;;4942236;29;20223;-85
2023/03/12 08:22:50;;;;;;;4.60;4.20;;;16.50;42.00;;;;;;4942113;29;20215;-85
2023/03/12 08:25:19;;;;;;;4.35;3.40;;;16.50;42.20;;;;;;4941582;28;20315;-85
2023/03/12 08:27:47;;;;;;;4.35;3.42;;;16.60;41.90;;;;;;4942097;29;20277;-85
2023/03/12 08:30:15;;;;;;;4.72;4.28;;;16.60;41.70;;;;;;4941940;29;20624;-85
2023/03/12 08:32:42;;;;;;;3.42;3.13;;;16.60;41.90;;;;;;4942558;29;20199;-85
2023/03/12 08:35:10;;;;;;;3.75;3.22;;;16.60;41.80;;;;;;4941902;28;20198;-85
2023/03/12 08:37:37;;;;;;;3.67;3.38;;;16.60;41.50;;;;;;4941543;29;20597;-86
2023/03/12 08:40:11;;;;;;;3.40;3.10;;;16.60;41.70;;;;;;4941527;29;20225;-86
2023/03/12 08:42:40;;;;;;;3.75;2.97;;;16.60;41.70;;;;;;4941279;29;20209;-86
2023/03/12 08:45:09;;;;;;;3.53;3.22;;;16.70;41.80;;;;;;4941211;28;20199;-86
2023/03/12 08:47:38;;;;;;;3.60;3.00;;;16.70;41.90;;;;;;4925729;29;20202;-85
2023/03/12 08:50:06;;;;;;;3.35;3.00;;;16.70;41.70;;;;;;4940993;29;20198;-85
2023/03/12 08:52:33;;;;;;;3.47;3.00;;;16.80;41.70;;;;;;4940763;29;20234;-85
2023/03/12 08:55:00;;;;;;;3.15;2.85;;;16.80;41.60;;;;;;4940859;29;20725;-85
2023/03/12 08:57:28;;;;;;;3.78;3.05;;;16.80;41.70;;;;;;4940860;29;20225;-85
2023/03/12 08:59:56;;;;;;;3.08;2.83;;;16.80;41.80;;;;;;4940281;29;20226;-86
2023/03/12 09:02:23;;;;;;;3.45;3.15;;;16.90;41.70;;;;;;4925443;29;20223;-85
2023/03/12 09:04:50;;;;;;;3.65;3.00;;;16.90;41.40;;;;;;4924684;29;20207;-85
2023/03/12 09:07:18;;;;;;;4.32;3.30;;;16.90;41.40;;;;;;4940419;29;20293;-85
2023/03/12 09:09:45;;;;;;;3.38;3.05;;;16.90;41.50;;;;;;4940394;29;20563;-85
2023/03/12 09:12:12;;;;;;;3.40;3.10;;;16.90;41.50;;;;;;4940594;29;20214;-85
2023/03/12 09:14:39;;;;;;;3.30;3.00;;;16.90;41.60;;;;;;4940388;29;20206;-85
2023/03/12 09:17:08;;;;;;;3.67;2.85;;;16.90;41.50;;;;;;4940372;29;20217;-85
2023/03/12 09:19:35;;;;;;;3.85;3.30;;;16.90;41.70;;;;;;4940365;29;20210;-85
2023/03/12 09:22:03;;;;;;;3.63;3.20;;;17.00;41.70;;;;;;4941140;29;20206;-85
2023/03/12 09:24:30;;;;;;;3.85;3.47;;;17.00;41.70;;;;;;4940382;29;20203;-85
2023/03/12 09:26:57;;;;;;;3.67;3.20;;;17.00;41.50;;;;;;4940398;29;20238;-85
2023/03/12 09:29:25;;;;;;;4.32;3.20;;;17.10;41.60;;;;;;4940185;29;20199;-85
2023/03/12 09:31:52;;;;;;;4.68;2.97;;;17.10;41.40;;;;;;4940099;29;20206;-85
2023/03/12 09:34:20;;;;;;;3.90;3.50;;;17.20;41.40;;;;;;4940137;29;20210;-85
2023/03/12 09:36:49;;;;;;;4.07;3.30;;;17.20;41.40;;;;;;4940843;29;20218;-84
2023/03/12 09:39:16;;;;;;;4.60;3.55;;;17.20;41.30;;;;;;4940189;29;20309;-84
2023/03/12 09:41:46;;;;;;;4.85;3.45;;;17.30;41.30;;;;;;4940489;29;20250;-84
2023/03/12 09:44:16;;;;;;;3.55;3.10;;;17.20;41.60;;;;;;4939840;29;20634;-84
2023/03/12 09:46:44;;;;;;;4.10;3.70;;;17.30;41.50;;;;;;4939893;29;20589;-84
2023/03/12 09:49:14;;;;;;;4.15;3.17;;;17.30;41.60;;;;;;4939412;29;20706;-85
2023/03/12 09:51:43;;;;;;;3.47;3.17;;;17.30;41.50;;;;;;4930299;29;20179;-84
2023/03/12 09:54:16;;;;;;;3.38;3.08;;;17.30;41.60;;;;;;4925970;29;20226;-84
2023/03/12 09:56:43;;;;;;;4.75;3.33;;;17.30;41.50;;;;;;4926578;29;20281;-84
2023/03/12 09:59:11;;;;;;;4.10;3.30;;;17.30;41.60;;;;;;4940611;29;20210;-84
2023/03/12 10:01:38;;;;;;;3.70;3.30;;;17.30;41.50;;;;;;4924024;29;20231;-84
2023/03/12 10:04:24;;;;;;;3.58;3.28;;;17.40;41.60;;;;;;4940683;29;20610;-84
2023/03/12 10:06:55;;;;;;;3.58;3.28;;;17.50;41.60;;;;;;4933914;29;20282;-85
2023/03/12 10:09:34;;;;;;;3.90;3.60;;;17.50;41.50;;;;;;4939874;29;20366;-84
2023/03/12 10:12:05;;;;;;;3.20;2.90;;;17.50;41.60;;;;;;4940176;29;20202;-85
2023/03/12 10:14:42;;;;;;;3.72;3.42;;;17.60;41.70;;;;;;4940535;29;20682;-85
2023/03/12 10:17:19;;;;;;;4.45;3.40;;;17.60;41.60;;;;;;4939917;29;20226;-85
2023/03/12 10:19:56;;;;;;;3.50;3.20;;;17.60;41.60;;;;;;4950708;29;20241;-84
2023/03/12 10:22:32;;;;;;;3.35;3.05;;;17.70;42.00;;;;;;4953182;29;20194;-84
2023/03/12 10:25:03;;;;;;;4.30;3.40;;;17.70;42.30;;;;;;4956851;28;20190;-84
2023/03/12 10:27:33;;;;;;;6.85;6.13;;;17.70;42.40;;;;;;4948598;29;20209;-84
2023/03/12 10:30:02;;;;;;;6.28;5.68;;;17.70;43.30;;;;;;4947462;29;20187;-85
2023/03/12 10:32:33;;;;;;;5.75;5.00;;;17.70;42.70;;;;;;4943475;29;20237;-84
2023/03/12 10:35:00;;;;;;;3.92;3.40;;;17.80;43.30;;;;;;4940218;29;20195;-84
2023/03/12 10:37:31;;;;;;;3.47;3.10;;;17.90;44.00;;;;;;4939835;29;20226;-84
2023/03/12 10:40:00;;;;;;;3.95;3.45;;;17.90;43.20;;;;;;4940117;29;20226;-84
2023/03/12 10:42:28;;;;;;;3.20;2.97;;;17.90;43.00;;;;;;4939899;29;20658;-84
2023/03/12 10:44:58;;;;;;;3.72;3.30;;;17.90;42.80;;;;;;4940040;29;20206;-84
2023/03/12 10:47:33;;;;;;;3.60;3.30;;;17.90;42.90;;;;;;4924838;29;20769;-84
2023/03/12 10:50:16;;;;;;;3.70;3.35;;;17.90;43.00;;;;;;4940483;29;20194;-85
2023/03/12 10:52:44;;;;;;;3.72;3.35;;;17.90;43.00;;;;;;4941853;29;20270;-85
2023/03/12 10:55:13;;;;;;;4.55;3.53;;;17.90;43.10;;;;;;4925055;28;20597;-84
2023/03/12 10:57:41;;;;;;;3.72;3.10;;;18.00;43.30;;;;;;4940332;29;20207;-84
2023/03/12 11:00:11;;;;;;;4.13;3.05;;;18.00;43.20;;;;;;4924525;29;20223;-84
2023/03/12 11:02:40;;;;;;;3.33;3.00;;;18.00;43.30;;;;;;4939807;29;20214;-85
2023/03/12 11:05:19;;;;;;;3.75;3.33;;;18.00;43.30;;;;;;4939957;28;20680;-85
2023/03/12 11:07:48;;;;;;;3.50;3.20;;;18.00;43.30;;;;;;4940044;29;20590;-85
2023/03/12 11:10:18;;;;;;;4.30;2.72;;;18.00;43.60;;;;;;4939906;29;20199;-85
2023/03/12 11:12:59;;;;;;;3.25;2.55;;;18.10;43.90;;;;;;4939967;29;20211;-85
2023/03/12 11:15:28;;;;;;;2.78;2.50;;;18.20;44.00;;;;;;4940092;28;20226;-84
2023/03/12 11:18:17;;;;;;;2.30;2.10;;;18.40;44.10;;;;;;4924150;29;20551;-84
2023/03/12 11:20:44;;;;;;;2.55;2.20;;;18.60;44.00;;;;;;4939266;29;20214;-86
2023/03/12 11:23:15;;;;;;;3.92;2.25;;;18.70;44.00;;;;;;4939191;29;20769;-85
2023/03/12 11:25:41;;;;;;;2.38;2.17;;;18.90;43.60;;;;;;4939561;29;20232;-85
2023/03/12 11:28:13;;;;;;;2.33;2.13;;;19.00;43.00;;;;;;4939082;29;20634;-84
2023/03/12 11:30:40;;;;;;;2.20;2.00;;;19.10;42.70;;;;;;4942485;29;20195;-85
2023/03/12 11:33:08;;;;;;;2.78;2.00;;;19.20;42.80;;;;;;4942718;29;20238;-85
2023/03/12 11:35:44;;;;;;;2.40;2.20;;;19.20;42.70;;;;;;4943086;29;20744;-85
2023/03/12 11:38:17;;;;;;;2.08;1.90;;;19.30;42.50;;;;;;4926504;29;20187;-84
2023/03/12 11:40:59;;;;;;;2.33;2.10;;;19.30;43.00;;;;;;4943170;29;20298;-86
2023/03/12 11:43:38;;;;;;;2.40;2.10;;;19.30;42.70;;;;;;4942159;29;20195;-85
2023/03/12 11:46:12;;;;;;;2.55;1.90;;;19.40;42.50;;;;;;4942849;29;20218;-84
2023/03/12 11:48:44;;;;;;;2.50;2.10;;;19.40;42.90;;;;;;4942193;29;20207;-84
2023/03/12 11:51:17;;;;;;;2.10;2.00;;;19.50;42.70;;;;;;4942176;29;20187;-84
2023/03/12 11:53:57;;;;;;;2.45;2.00;;;19.50;42.50;;;;;;4941845;29;20547;-83
2023/03/12 11:56:26;;;;;;;2.05;1.85;;;19.50;42.80;;;;;;4942114;29;20689;-83
2023/03/12 11:59:00;;;;;;;1.77;1.67;;;19.60;42.60;;;;;;4941938;29;20213;-84
2023/03/12 12:01:31;;;;;;;2.00;1.90;;;19.60;42.50;;;;;;4943292;29;20253;-84
2023/03/12 12:04:04;;;;;;;2.20;2.00;;;19.60;43.00;;;;;;4960701;29;20648;-84
2023/03/12 12:06:36;;;;;;;3.13;1.77;;;19.60;42.30;;;;;;4943509;29;20565;-83
2023/03/12 12:09:14;;;;;;;2.22;2.05;;;19.60;42.30;;;;;;4943241;29;20245;-84
2023/03/12 12:11:50;;;;;;;2.00;1.80;;;19.70;42.20;;;;;;4943427;29;20201;-84
2023/03/12 12:14:24;;;;;;;2.20;2.00;;;19.80;42.20;;;;;;4927871;29;20544;-84
2023/03/12 12:17:01;;;;;;;1.88;1.77;;;19.80;42.00;;;;;;4960508;28;20203;-84
2023/03/12 12:19:39;;;;;;;1.92;1.83;;;19.80;42.10;;;;;;4943881;29;20195;-84
2023/03/12 12:22:21;;;;;;;2.10;1.90;;;19.80;42.00;;;;;;4942848;29;20630;-84
2023/03/12 12:25:10;;;;;;;2.25;2.05;;;19.80;42.20;;;;;;4943369;29;20199;-83
2023/03/12 12:27:40;;;;;;;1.80;1.70;;;19.80;41.90;;;;;;4941968;29;20262;-83
2023/03/12 12:30:11;;;;;;;1.85;1.75;;;19.90;42.00;;;;;;4941214;29;20591;-83
2023/03/12 12:32:49;;;;;;;2.55;1.90;;;19.90;41.90;;;;;;4941548;29;20199;-84
2023/03/12 12:35:20;;;;;;;1.90;1.70;;;19.90;42.00;;;;;;4941924;28;20206;-84
2023/03/12 12:37:50;;;;;;;2.03;1.90;;;20.00;41.90;;;;;;4942083;29;20207;-83
2023/03/12 12:40:21;;;;;;;2.03;1.83;;;20.00;41.80;;;;;;4944464;29;20218;-84
2023/03/12 12:42:56;;;;;;;1.92;1.73;;;20.10;41.70;;;;;;4943350;29;20203;-84
2023/03/12 12:45:23;;;;;;;2.40;1.70;;;20.10;41.70;;;;;;4942014;28;20194;-83
2023/03/12 12:47:50;;;;;;;2.25;1.88;;;20.10;41.70;;;;;;4942073;29;20202;-85
2023/03/12 12:50:19;;;;;;;1.63;1.52;;;20.00;41.70;;;;;;4940809;29;20198;-84
2023/03/12 12:52:47;;;;;;;2.40;1.90;;;20.00;41.80;;;;;;4941167;29;20214;-84
2023/03/12 12:55:16;;;;;;;2.00;1.80;;;20.00;41.90;;;;;;4941863;28;20253;-83